createdAt,value
2022-12-15T14:08:41.523Z,500.00
2022-12-15T14:09:41.350Z,500.00
2022-12-15T14:11:07.037Z,500.00
2022-12-15T14:12:01.588Z,500.00
2022-12-15T14:13:00.557Z,500.00
2022-12-15T14:14:00.497Z,500.00
2022-12-15T14:15:00.622Z,500.00
2022-12-15T14:16:00.580Z,500.00
2022-12-15T14:17:00.370Z,519.00
2022-12-15T14:18:00.337Z,534.00
2022-12-15T14:19:00.193Z,530.00
2022-12-15T14:20:00.161Z,532.00
2022-12-15T14:21:36.215Z,500.00
2022-12-15T14:22:36.180Z,500.00
2022-12-15T14:23:36.213Z,500.00
2022-12-15T14:24:39.088Z,500.00
2022-12-15T14:25:36.075Z,500.00
2022-12-15T14:26:36.052Z,500.00
2022-12-15T14:27:36.036Z,500.00
2022-12-15T14:28:36.109Z,500.00
2022-12-15T14:29:36.106Z,500.00
2022-12-15T14:30:36.081Z,509.00
2022-12-15T14:31:36.117Z,500.00
2022-12-15T14:32:36.084Z,522.00
2022-12-15T14:33:36.766Z,513.00
2022-12-15T14:34:36.091Z,516.00
2022-12-15T14:35:36.049Z,554.00
2022-12-15T14:36:36.013Z,555.00
2022-12-15T14:37:36.024Z,596.00
2022-12-15T14:38:36.032Z,583.00
2022-12-15T14:39:36.012Z,567.00
2022-12-15T14:40:36.031Z,596.00
2022-12-15T14:41:36.027Z,607.00
2022-12-15T14:43:36.563Z,593.00
2022-12-15T14:46:36.049Z,540.00
2022-12-15T14:49:36.130Z,593.00
2022-12-15T14:53:36.070Z,593.00
2022-12-15T14:54:36.150Z,628.00
2022-12-15T14:55:36.064Z,634.00
2022-12-15T14:56:36.072Z,624.00
2022-12-15T14:57:36.069Z,659.00
2022-12-15T14:58:36.677Z,635.00
2022-12-15T14:59:36.094Z,620.00
2022-12-15T15:00:36.131Z,630.00
2022-12-15T15:01:36.155Z,722.00
2022-12-15T15:02:36.285Z,658.00
2022-12-15T15:03:36.201Z,655.00
2022-12-15T15:04:36.151Z,643.00
2022-12-15T15:05:36.209Z,626.00
2022-12-15T15:06:36.199Z,696.00
2022-12-15T15:07:36.286Z,573.00
